createdAt,value
2019-02-02T00:00:57.686Z,21.90
2019-02-02T00:05:02.671Z,22.77
2019-02-02T00:09:09.472Z,21.97
2019-02-02T00:13:14.397Z,24.10
2019-02-02T00:17:19.294Z,27.27
2019-02-02T00:21:24.175Z,28.67
2019-02-02T00:25:29.096Z,28.50
2019-02-02T00:29:33.973Z,29.37
2019-02-02T00:33:39.182Z,32.67
2019-02-02T00:37:44.080Z,35.87
2019-02-02T00:41:48.968Z,33.00
2019-02-02T00:45:53.863Z,31.80
2019-02-02T00:49:59.196Z,30.60
2019-02-02T00:54:04.137Z,30.97
2019-02-02T00:58:09.057Z,31.30
2019-02-02T01:02:13.955Z,32.17
2019-02-02T01:06:19.521Z,32.60
2019-02-02T01:10:28.462Z,31.60
2019-02-02T01:14:33.368Z,31.17
2019-02-02T01:18:38.332Z,33.47
2019-02-02T01:22:43.227Z,32.13
2019-02-02T01:26:48.376Z,31.83
2019-02-02T01:30:53.580Z,31.20
2019-02-02T01:34:58.519Z,32.03
2019-02-02T01:39:04.378Z,31.23
2019-02-02T01:43:09.289Z,33.70
2019-02-02T01:47:14.275Z,32.23
2019-02-02T01:51:19.502Z,34.70
2019-02-02T01:55:24.521Z,34.03
2019-02-02T01:59:29.396Z,33.93
2019-02-02T02:03:34.644Z,36.50
2019-02-02T02:07:39.533Z,36.07
2019-02-02T02:11:44.485Z,33.37
2019-02-02T02:15:49.414Z,31.73
2019-02-02T02:19:54.278Z,31.87
2019-02-02T02:23:59.255Z,33.27
2019-02-02T02:28:04.137Z,35.30
2019-02-02T02:32:09.099Z,35.37
2019-02-02T02:36:14.270Z,36.83
2019-02-02T02:40:21.822Z,35.73
2019-02-02T02:44:26.785Z,35.97
2019-02-02T02:48:31.667Z,38.67
2019-02-02T02:52:36.556Z,36.77
2019-02-02T02:56:41.515Z,36.53
2019-02-02T03:00:46.417Z,35.00
2019-02-02T03:04:51.301Z,37.27
2019-02-02T03:08:56.497Z,37.87
2019-02-02T03:13:01.615Z,35.87
2019-02-02T03:17:06.614Z,34.97
2019-02-02T03:21:11.802Z,35.27
2019-02-02T03:25:22.391Z,35.93
2019-02-02T03:29:27.290Z,33.67
2019-02-02T03:33:32.260Z,30.40
2019-02-02T03:37:37.130Z,30.53
2019-02-02T03:41:42.134Z,33.73
2019-02-02T03:45:47.020Z,33.07
2019-02-02T03:49:51.906Z,33.10
2019-02-02T03:54:08.273Z,26.73
2019-02-02T03:58:03.479Z,27.40
2019-02-02T04:02:08.698Z,28.40
2019-02-02T04:06:13.678Z,27.30
2019-02-02T04:10:18.656Z,24.13
2019-02-02T04:14:23.663Z,25.53
2019-02-02T04:18:28.609Z,26.03
2019-02-02T04:22:35.687Z,24.10
2019-02-02T04:26:40.112Z,26.20
2019-02-02T04:30:45.011Z,24.77
2019-02-02T04:34:49.922Z,29.63
2019-02-02T04:38:54.817Z,26.80
2019-02-02T04:43:01.782Z,26.10
2019-02-02T04:47:06.299Z,26.93
2019-02-02T04:51:11.203Z,25.67
2019-02-02T04:55:17.582Z,26.53
2019-02-02T04:59:29.085Z,25.97
2019-02-02T05:03:29.136Z,22.83
2019-02-02T05:07:34.028Z,23.77
2019-02-02T05:11:38.930Z,25.13
2019-02-02T05:15:43.825Z,22.87
2019-02-02T05:19:49.049Z,23.33
2019-02-02T05:23:54.416Z,23.53
2019-02-02T05:27:59.300Z,24.83
2019-02-02T05:32:04.207Z,22.83
2019-02-02T05:36:09.096Z,23.13
2019-02-02T05:40:15.855Z,27.20
2019-02-02T05:44:21.047Z,25.00
2019-02-02T05:48:25.949Z,27.23
2019-02-02T05:52:30.846Z,26.80
2019-02-02T05:56:35.776Z,30.57
2019-02-02T06:00:44.333Z,29.20
2019-02-02T06:04:49.439Z,29.83
2019-02-02T06:08:54.393Z,28.47
2019-02-02T06:12:59.367Z,28.33
2019-02-02T06:17:04.825Z,30.67
2019-02-02T06:21:09.708Z,29.57
2019-02-02T06:25:14.772Z,34.30
2019-02-02T06:29:19.775Z,35.40
2019-02-02T06:33:24.697Z,38.60
2019-02-02T06:37:29.618Z,39.10
2019-02-02T06:41:34.673Z,37.37
2019-02-02T06:45:39.575Z,46.67
2019-02-02T06:49:44.458Z,41.00
2019-02-02T06:53:50.230Z,41.07
2019-02-02T06:57:55.673Z,38.07
2019-02-02T07:02:00.608Z,41.13
2019-02-02T07:06:05.655Z,40.63
2019-02-02T07:10:14.487Z,39.97
2019-02-02T07:14:19.384Z,44.13
2019-02-02T07:18:24.277Z,36.93
2019-02-02T07:22:29.372Z,36.87
2019-02-02T07:26:34.783Z,33.83
2019-02-02T07:30:39.679Z,30.43
2019-02-02T07:34:45.035Z,30.50
2019-02-02T07:38:50.050Z,30.80
2019-02-02T07:42:54.911Z,34.33
2019-02-02T07:46:59.800Z,35.80
2019-02-02T07:51:04.737Z,35.73
2019-02-02T07:55:11.472Z,35.17
2019-02-02T07:59:16.484Z,37.63
2019-02-02T08:03:21.463Z,37.93
2019-02-02T08:07:26.385Z,37.30
2019-02-02T08:11:31.295Z,41.67
2019-02-02T08:15:36.186Z,41.37
2019-02-02T08:19:41.083Z,46.23
2019-02-02T08:23:46.015Z,48.63
2019-02-02T08:27:50.936Z,51.70
2019-02-02T08:31:55.838Z,47.63
2019-02-02T08:36:04.054Z,44.77
2019-02-02T08:40:09.832Z,46.83
2019-02-02T08:44:14.843Z,43.43
2019-02-02T08:48:19.853Z,48.10
2019-02-02T08:52:24.813Z,39.43
2019-02-02T08:56:30.185Z,39.60
2019-02-02T09:00:35.101Z,37.63
2019-02-02T09:04:39.997Z,37.90
2019-02-02T09:08:45.210Z,41.97
2019-02-02T09:12:50.121Z,39.30
2019-02-02T09:16:55.007Z,40.50
2019-02-02T09:21:00.092Z,38.07
2019-02-02T09:25:05.956Z,39.80
2019-02-02T09:29:10.870Z,41.83
2019-02-02T09:33:15.876Z,44.30
2019-02-02T09:37:21.065Z,46.13
2019-02-02T09:41:26.133Z,43.37
2019-02-02T09:45:31.038Z,41.83
2019-02-02T09:49:36.036Z,40.67
2019-02-02T09:53:40.949Z,41.67
2019-02-02T09:57:46.175Z,44.07
2019-02-02T10:01:51.128Z,41.97
2019-02-02T10:05:56.218Z,47.47
2019-02-02T10:10:01.415Z,42.40
2019-02-02T10:14:06.411Z,45.30
2019-02-02T10:18:11.614Z,46.00
2019-02-02T10:22:16.526Z,44.73
2019-02-02T10:26:21.735Z,44.53
2019-02-02T10:30:32.530Z,43.40
2019-02-02T10:34:37.429Z,44.23
2019-02-02T10:38:42.427Z,48.27
2019-02-02T10:42:47.441Z,43.67
2019-02-02T10:46:52.403Z,42.40
2019-02-02T10:50:57.634Z,39.83
2019-02-02T10:55:02.618Z,39.07
2019-02-02T10:59:08.800Z,40.97
2019-02-02T11:03:14.542Z,39.87
2019-02-02T11:07:19.951Z,39.17
2019-02-02T11:11:24.916Z,39.73
2019-02-02T11:15:30.269Z,36.13
2019-02-02T11:19:35.203Z,37.47
2019-02-02T11:23:40.197Z,38.83
2019-02-02T11:27:45.306Z,33.00
2019-02-02T11:32:02.217Z,35.53
2019-02-02T11:35:57.582Z,35.00
2019-02-02T11:40:02.999Z,31.20
2019-02-02T11:44:08.288Z,34.80
2019-02-02T11:48:15.093Z,34.80
2019-02-02T11:52:23.230Z,32.07
2019-02-02T11:56:27.064Z,31.43
2019-02-02T12:00:42.780Z,32.33
2019-02-02T12:04:47.711Z,32.93
2019-02-02T12:08:53.032Z,34.70
2019-02-02T12:12:58.080Z,33.10
2019-02-02T12:17:03.385Z,32.03
2019-02-02T12:21:14.194Z,33.43
2019-02-02T12:25:19.162Z,35.73
2019-02-02T12:29:24.033Z,35.63
2019-02-02T12:33:29.320Z,37.23
2019-02-02T12:37:34.540Z,32.67
2019-02-02T12:41:39.535Z,37.80
2019-02-02T12:45:51.318Z,36.33
2019-02-02T12:49:56.460Z,36.77
2019-02-02T12:54:01.428Z,38.73
2019-02-02T12:58:07.095Z,34.93
2019-02-02T13:02:12.039Z,36.93
2019-02-02T13:06:17.016Z,36.67
2019-02-02T13:10:25.042Z,39.37
2019-02-02T13:14:30.057Z,39.03
2019-02-02T13:18:34.972Z,40.40
2019-02-02T13:22:39.894Z,38.00
2019-02-02T13:26:44.804Z,40.53
2019-02-02T13:30:49.681Z,42.37
2019-02-02T13:34:56.696Z,39.77
2019-02-02T13:39:02.093Z,38.57
2019-02-02T13:43:06.957Z,43.50
2019-02-02T13:47:11.972Z,43.13
2019-02-02T13:51:16.960Z,39.40
2019-02-02T13:55:21.937Z,36.93
2019-02-02T13:59:26.800Z,38.83
2019-02-02T14:03:31.983Z,40.27
2019-02-02T14:07:36.999Z,37.57
2019-02-02T14:11:42.077Z,41.33
2019-02-02T14:15:47.007Z,42.27
2019-02-02T14:19:52.049Z,40.80
2019-02-02T14:23:57.279Z,39.70
2019-02-02T14:28:02.280Z,38.97
2019-02-02T14:32:07.178Z,38.40
2019-02-02T14:36:12.206Z,39.57
2019-02-02T14:40:18.477Z,36.23
2019-02-02T14:44:23.918Z,40.07
2019-02-02T14:48:28.919Z,36.80
2019-02-02T14:52:34.234Z,40.33
2019-02-02T14:56:39.217Z,37.43
2019-02-02T15:00:44.125Z,42.53
2019-02-02T15:04:49.109Z,40.90
2019-02-02T15:08:54.107Z,45.73
2019-02-02T15:12:59.349Z,38.53
2019-02-02T15:17:04.315Z,43.23
2019-02-02T15:21:09.227Z,38.93
2019-02-02T15:25:14.568Z,46.10
2019-02-02T15:29:19.971Z,48.83
2019-02-02T15:33:24.988Z,42.63
2019-02-02T15:37:30.310Z,45.17
2019-02-02T15:41:35.195Z,42.03
2019-02-02T15:45:40.162Z,44.87
2019-02-02T15:49:45.107Z,44.67
2019-02-02T15:53:50.321Z,46.90
2019-02-02T15:57:55.969Z,48.77
2019-02-02T16:02:00.935Z,44.97
2019-02-02T16:06:05.913Z,46.87
2019-02-02T16:10:15.554Z,41.63
2019-02-02T16:14:20.625Z,42.17
2019-02-02T16:18:25.522Z,42.10
2019-02-02T16:22:30.439Z,45.07
2019-02-02T16:26:35.342Z,42.80
2019-02-02T16:30:40.351Z,46.23
2019-02-02T16:34:45.270Z,47.13
2019-02-02T16:38:50.812Z,48.60
2019-02-02T16:42:55.679Z,46.70
2019-02-02T16:47:00.577Z,42.67
2019-02-02T16:51:05.567Z,44.53
2019-02-02T16:55:11.132Z,46.40
2019-02-02T16:59:16.049Z,47.77
2019-02-02T17:03:20.994Z,44.67
2019-02-02T17:07:26.210Z,41.07
2019-02-02T17:11:31.212Z,41.43
2019-02-02T17:15:36.459Z,45.50
2019-02-02T17:19:41.367Z,44.23
2019-02-02T17:23:46.596Z,45.23
2019-02-02T17:27:51.468Z,41.63
2019-02-02T17:31:56.482Z,46.53
2019-02-02T17:36:01.387Z,42.63
2019-02-02T17:40:12.529Z,47.53
2019-02-02T17:44:17.751Z,46.80
2019-02-02T17:48:22.938Z,44.97
2019-02-02T17:52:27.851Z,45.83
2019-02-02T17:56:32.764Z,48.27
2019-02-02T18:00:43.583Z,45.07
2019-02-02T18:04:48.468Z,48.03
2019-02-02T18:08:53.766Z,51.33
2019-02-02T18:12:58.661Z,49.27
2019-02-02T18:17:03.654Z,51.93
2019-02-02T18:21:08.620Z,53.30
2019-02-02T18:25:14.324Z,54.07
2019-02-02T18:29:19.340Z,56.27
2019-02-02T18:33:24.263Z,56.87
2019-02-02T18:37:29.403Z,59.17
2019-02-02T18:41:34.310Z,58.73
2019-02-02T18:45:39.197Z,58.30
2019-02-02T18:49:44.145Z,54.13
2019-02-02T18:53:49.071Z,56.30
2019-02-02T18:57:53.989Z,54.77
2019-02-02T19:01:58.886Z,49.43
2019-02-02T19:06:03.775Z,51.80
2019-02-02T19:10:16.197Z,53.17
2019-02-02T19:14:21.103Z,53.23
2019-02-02T19:18:26.011Z,52.17
2019-02-02T19:22:30.904Z,58.63
2019-02-02T19:26:35.844Z,50.13
2019-02-02T19:30:40.826Z,55.60
2019-02-02T19:34:45.736Z,54.20
2019-02-02T19:38:50.619Z,50.37
2019-02-02T19:42:55.537Z,51.87
2019-02-02T19:47:00.743Z,48.43
2019-02-02T19:51:05.667Z,47.73
2019-02-02T19:55:14.704Z,52.73
2019-02-02T19:59:17.440Z,45.33
2019-02-02T20:03:22.354Z,46.40
2019-02-02T20:07:27.621Z,45.67
2019-02-02T20:11:32.515Z,48.87
2019-02-02T20:15:37.398Z,50.00
2019-02-02T20:19:42.370Z,46.83
2019-02-02T20:23:47.272Z,52.20
2019-02-02T20:27:52.187Z,41.93
2019-02-02T20:31:57.181Z,42.93
2019-02-02T20:36:02.148Z,47.10
2019-02-02T20:40:09.511Z,48.07
2019-02-02T20:44:14.506Z,43.73
2019-02-02T20:48:19.761Z,50.70
2019-02-02T20:52:24.696Z,45.67
2019-02-02T20:56:29.689Z,47.17
2019-02-02T21:00:35.234Z,45.73
2019-02-02T21:04:40.117Z,47.77
2019-02-02T21:08:45.695Z,40.13
2019-02-02T21:12:50.582Z,46.13
2019-02-02T21:16:55.558Z,45.40
2019-02-02T21:21:00.841Z,47.07
2019-02-02T21:25:06.356Z,48.23
2019-02-02T21:29:11.581Z,50.50
2019-02-02T21:33:16.924Z,49.20
2019-02-02T21:37:21.923Z,52.80
2019-02-02T21:41:26.857Z,56.43
2019-02-02T21:45:32.377Z,58.80
2019-02-02T21:49:37.811Z,59.97
2019-02-02T21:53:43.523Z,68.03
2019-02-02T21:57:48.951Z,72.37
2019-02-02T22:01:54.252Z,67.10
2019-02-02T22:05:59.648Z,70.23
2019-02-02T22:10:06.317Z,73.03
2019-02-02T22:14:11.744Z,71.63
2019-02-02T22:18:21.586Z,76.27
2019-02-02T22:22:24.864Z,70.57
2019-02-02T22:26:30.277Z,71.90
2019-02-02T22:30:37.871Z,66.50
2019-02-02T22:34:43.240Z,61.67
2019-02-02T22:38:48.743Z,59.63
2019-02-02T22:42:54.159Z,59.77
2019-02-02T22:46:59.660Z,59.33
2019-02-02T22:51:05.096Z,60.30
2019-02-02T22:55:11.866Z,58.07
2019-02-02T22:59:17.325Z,61.87
2019-02-02T23:03:28.906Z,60.70
2019-02-02T23:08:28.039Z,55.50
2019-02-02T23:13:17.424Z,51.57
2019-02-02T23:17:22.831Z,54.33
2019-02-02T23:21:29.947Z,54.97
2019-02-02T23:25:35.428Z,54.43
2019-02-02T23:29:40.855Z,50.13
2019-02-02T23:33:46.385Z,54.30
2019-02-02T23:37:51.803Z,51.37
2019-02-02T23:41:57.224Z,51.67
2019-02-02T23:46:02.646Z,49.10
2019-02-02T23:50:08.839Z,53.57
2019-02-02T23:54:14.267Z,47.00
2019-02-02T23:58:19.683Z,45.27
